Aviation Digital Data Service (ADDS)

Output produced by METARs form (1106 UTC 18 June 2019)
found at http://www.aviationweather.gov/metar/data/
 
Forecast for: EFIV (IVALO , FI)
Text: TAF EFIV 180830Z 1809/1813 03007KT CAVOK
Forecast period: 0900 to 1300 UTC 18 June 2019
Forecast type: FROM: standard forecast or significant change
Winds: from the NNE (30 degrees) at 8 MPH (7 knots; 3.6 m/s)
Visibility: 6 or more miles 10+ km)
Ceiling: unknown
Clouds: missing
Weather: NSW  (no significant weather)